Time;durP1;ratioP1;P1;durP2;ratioP2;P2;SDS_P1;SDS_P2;PMS_P1;PMS_P2;Temp;Humidity;BMP_temperature;BMP_pressure;BME280_temperature;BME280_humidity;BME280_pressure;Samples;Min_cycle;Max_cycle;Signal;HPM_P1;HPM_P2
2022/09/06 03:01:28;;;;;;;9.15;4.90;;;20.30;99.90;;;;;;6245547;22;20067;-84
2022/09/06 03:03:56;;;;;;;7.22;5.50;;;20.30;99.90;;;;;;6224795;22;20023;-87
2022/09/06 03:06:22;;;;;;;10.85;5.35;;;20.30;99.90;;;;;;6250240;22;20050;-86
2022/09/06 03:08:47;;;;;;;7.60;5.13;;;20.30;99.90;;;;;;6250671;22;20035;-84
2022/09/06 03:11:13;;;;;;;6.97;5.68;;;20.30;99.90;;;;;;6225225;22;20432;-85
2022/09/06 03:13:39;;;;;;;8.68;5.63;;;20.30;99.90;;;;;;6225305;22;20019;-86
2022/09/06 03:16:04;;;;;;;7.90;4.90;;;20.20;99.90;;;;;;6250802;22;20020;-83
2022/09/06 03:18:31;;;;;;;7.40;4.80;;;20.20;99.90;;;;;;6250604;22;20449;-87
2022/09/06 03:20:57;;;;;;;9.10;4.93;;;20.20;99.90;;;;;;6250684;22;20011;-83
2022/09/06 03:23:25;;;;;;;6.03;4.90;;;20.20;99.90;;;;;;6250406;22;20075;-88
2022/09/06 03:25:51;;;;;;;7.72;5.10;;;20.20;99.90;;;;;;6277645;22;20137;-86
2022/09/06 03:28:18;;;;;;;9.77;4.95;;;20.20;99.90;;;;;;6277655;22;20040;-82
2022/09/06 03:30:44;;;;;;;9.30;5.50;;;20.20;99.90;;;;;;6277017;22;20015;-87
2022/09/06 03:33:11;;;;;;;7.15;5.00;;;20.20;99.90;;;;;;6250055;22;20464;-85
2022/09/06 03:35:37;;;;;;;9.98;5.22;;;20.10;99.90;;;;;;6277029;22;20452;-83
2022/09/06 03:38:03;;;;;;;10.35;5.63;;;20.10;99.90;;;;;;6250416;22;20015;-88
2022/09/06 03:40:29;;;;;;;7.00;6.13;;;20.10;99.90;;;;;;6277236;22;20016;-83
2022/09/06 03:42:55;;;;;;;8.35;5.18;;;20.10;99.90;;;;;;6249710;22;20349;-82
2022/09/06 03:45:21;;;;;;;11.10;5.65;;;20.10;99.90;;;;;;6277063;22;20012;-83
2022/09/06 03:47:47;;;;;;;7.72;5.43;;;20.00;99.90;;;;;;6250566;22;20018;-87
2022/09/06 03:50:12;;;;;;;7.75;5.05;;;20.00;99.90;;;;;;6277778;22;20012;-84
2022/09/06 03:52:39;;;;;;;6.82;5.40;;;20.00;99.90;;;;;;6277768;22;20393;-85
2022/09/06 03:55:06;;;;;;;8.40;5.65;;;20.00;99.90;;;;;;6250645;22;20174;-84
2022/09/06 03:57:31;;;;;;;10.20;5.90;;;20.00;99.90;;;;;;6277432;22;20486;-86
2022/09/06 03:59:57;;;;;;;9.93;5.90;;;19.90;99.90;;;;;;6279531;22;20047;-87
2022/09/06 04:02:23;;;;;;;9.95;6.55;;;19.90;99.90;;;;;;6221772;23;20342;-84
2022/09/06 04:04:48;;;;;;;7.47;6.68;;;19.80;99.90;;;;;;6248736;22;20354;-84
2022/09/06 04:07:14;;;;;;;8.77;6.95;;;19.80;99.90;;;;;;6246464;23;20345;-86
2022/09/06 04:09:40;;;;;;;9.50;7.00;;;19.80;99.90;;;;;;6247058;23;20008;-85
2022/09/06 04:12:05;;;;;;;8.55;6.45;;;19.70;99.90;;;;;;6248676;22;20059;-83
2022/09/06 04:14:31;;;;;;;9.88;6.63;;;19.70;99.90;;;;;;6248361;23;20453;-84
2022/09/06 04:16:57;;;;;;;8.07;6.97;;;19.70;99.90;;;;;;6248585;23;20012;-84
2022/09/06 04:19:22;;;;;;;10.05;7.20;;;19.60;99.90;;;;;;6246827;23;20012;-88
2022/09/06 04:21:48;;;;;;;8.68;6.95;;;19.60;99.90;;;;;;6246793;22;20070;-78
2022/09/06 04:24:14;;;;;;;9.30;6.97;;;19.50;99.90;;;;;;6248156;23;20057;-85
2022/09/06 04:26:39;;;;;;;8.98;7.07;;;19.50;99.90;;;;;;6246812;23;20438;-85
2022/09/06 04:29:05;;;;;;;9.00;6.90;;;19.50;99.90;;;;;;6246968;23;20087;-84
2022/09/06 04:31:31;;;;;;;9.02;7.10;;;19.40;99.90;;;;;;6247049;22;20287;-82
2022/09/06 04:33:56;;;;;;;9.98;8.82;;;19.40;99.90;;;;;;6248064;23;20015;-84
2022/09/06 04:36:22;;;;;;;10.52;7.53;;;19.40;99.90;;;;;;6248312;22;20012;-83
2022/09/06 04:38:48;;;;;;;9.98;8.10;;;19.30;99.90;;;;;;6246647;23;20054;-83
2022/09/06 04:41:15;;;;;;;11.68;7.90;;;19.30;99.90;;;;;;6246504;22;20008;-79
2022/09/06 04:43:41;;;;;;;11.68;7.85;;;19.30;99.90;;;;;;6246439;23;20338;-80
2022/09/06 04:46:28;;;;;;;10.57;7.80;;;19.20;99.90;;;;;;6246416;23;20012;-81
2022/09/06 04:48:56;;;;;;;12.35;7.70;;;19.20;99.90;;;;;;6221488;23;20497;-84
2022/09/06 04:51:23;;;;;;;9.80;8.07;;;19.10;99.90;;;;;;6246566;22;20337;-86
2022/09/06 04:53:49;;;;;;;12.70;8.25;;;19.10;99.90;;;;;;6246681;23;20322;-80
2022/09/06 04:56:20;;;;;;;9.40;8.50;;;19.10;99.90;;;;;;6246568;23;20008;-81
2022/09/06 04:58:47;;;;;;;12.13;7.85;;;19.10;99.90;;;;;;6246540;23;20044;-81
2022/09/06 05:01:14;;;;;;;10.68;8.48;;;19.00;99.90;;;;;;6260025;22;20011;-84
2022/09/06 05:03:40;;;;;;;12.60;8.50;;;19.00;99.90;;;;;;6251403;22;20441;-81
2022/09/06 05:06:20;;;;;;;13.23;8.98;;;19.00;99.90;;;;;;6226142;22;20016;-83
2022/09/06 05:08:47;;;;;;;11.38;9.23;;;19.00;99.90;;;;;;6225935;22;20433;-83
2022/09/06 05:11:12;;;;;;;11.05;9.02;;;18.90;99.90;;;;;;6225424;22;20011;-83
2022/09/06 05:13:38;;;;;;;11.20;9.50;;;18.90;99.90;;;;;;6251373;22;20026;-85
2022/09/06 05:16:05;;;;;;;12.77;9.60;;;18.90;99.90;;;;;;6226035;22;20016;-86
2022/09/06 05:18:32;;;;;;;12.20;9.48;;;18.80;99.90;;;;;;6251060;22;20043;-82
2022/09/06 05:20:57;;;;;;;11.52;9.02;;;18.80;99.90;;;;;;6278031;22;20083;-85
2022/09/06 05:23:24;;;;;;;13.77;10.80;;;18.80;99.90;;;;;;6251429;22;20425;-80
2022/09/06 05:25:50;;;;;;;13.02;9.98;;;18.80;99.90;;;;;;6251342;22;20014;-84
2022/09/06 05:28:16;;;;;;;12.50;11.30;;;18.80;99.90;;;;;;6225980;22;20400;-84
2022/09/06 05:30:41;;;;;;;12.18;10.98;;;18.70;99.90;;;;;;6251315;22;20047;-80
2022/09/06 05:33:08;;;;;;;13.32;10.70;;;18.70;99.90;;;;;;6226107;22;20011;-84
2022/09/06 05:35:33;;;;;;;14.25;11.57;;;18.60;99.90;;;;;;6251840;22;20456;-82
2022/09/06 05:37:59;;;;;;;12.90;11.15;;;18.60;99.90;;;;;;6277441;22;20050;-82
2022/09/06 05:40:25;;;;;;;15.65;12.30;;;18.50;99.90;;;;;;6252029;22;20062;-83
2022/09/06 05:42:51;;;;;;;13.38;10.23;;;18.50;99.90;;;;;;6278832;22;20012;-86
2022/09/06 05:45:16;;;;;;;13.73;11.40;;;18.50;99.90;;;;;;6278490;22;20012;-80
2022/09/06 05:47:42;;;;;;;13.82;11.82;;;18.50;99.90;;;;;;6251497;22;20341;-82
2022/09/06 05:50:08;;;;;;;15.30;11.35;;;18.50;99.90;;;;;;6278919;22;20057;-83
2022/09/06 05:52:34;;;;;;;12.70;11.40;;;18.60;99.90;;;;;;6278206;22;20053;-85
2022/09/06 05:55:00;;;;;;;13.02;11.45;;;18.50;99.90;;;;;;6225899;22;20379;-83
2022/09/06 05:57:26;;;;;;;13.32;10.60;;;18.60;99.90;;;;;;6251498;22;20019;-80
2022/09/06 05:59:54;;;;;;;13.77;12.38;;;18.50;99.90;;;;;;6250799;22;20430;-86
2022/09/06 06:02:23;;;;;;;15.77;11.35;;;18.60;99.90;;;;;;6276342;22;20015;-85
2022/09/06 06:04:49;;;;;;;14.05;11.23;;;18.60;99.90;;;;;;6276394;22;20004;-86
2022/09/06 06:07:14;;;;;;;13.70;11.40;;;18.50;99.90;;;;;;6225706;22;20323;-83
2022/09/06 06:09:41;;;;;;;14.75;11.07;;;18.50;99.90;;;;;;6251078;22;20012;-83
2022/09/06 06:12:07;;;;;;;12.60;11.25;;;18.40;99.90;;;;;;6225639;22;20019;-86
2022/09/06 06:14:32;;;;;;;14.77;11.30;;;18.30;99.90;;;;;;6251081;22;20507;-84
2022/09/06 06:16:58;;;;;;;14.43;11.50;;;18.40;99.90;;;;;;6277551;22;20372;-84
2022/09/06 06:19:25;;;;;;;14.50;10.60;;;18.40;99.90;;;;;;6278305;22;20011;-84
2022/09/06 06:21:51;;;;;;;11.98;10.45;;;18.40;99.90;;;;;;6250695;22;20016;-86
2022/09/06 06:24:17;;;;;;;11.40;10.20;;;18.40;99.90;;;;;;6252009;22;20047;-85
2022/09/06 06:26:42;;;;;;;13.00;10.55;;;18.30;99.90;;;;;;6278211;22;20441;-84
2022/09/06 06:29:08;;;;;;;11.77;10.40;;;18.30;99.90;;;;;;6278549;22;20003;-84
2022/09/06 06:31:36;;;;;;;13.93;10.43;;;18.30;99.90;;;;;;6226110;22;20015;-83
2022/09/06 06:34:02;;;;;;;12.68;11.38;;;18.30;99.90;;;;;;6251461;22;20008;-84
2022/09/06 06:36:33;;;;;;;13.45;11.25;;;18.30;99.90;;;;;;6251132;22;20016;-84
2022/09/06 06:39:00;;;;;;;13.35;11.80;;;18.30;99.90;;;;;;6250947;22;20043;-84
2022/09/06 06:41:28;;;;;;;13.40;12.00;;;18.30;99.90;;;;;;6250887;22;20061;-83
2022/09/06 06:43:56;;;;;;;14.52;11.77;;;18.30;99.90;;;;;;6251142;22;20016;-84
2022/09/06 06:46:24;;;;;;;15.60;11.68;;;18.30;99.90;;;;;;6279080;22;20332;-83
2022/09/06 06:48:50;;;;;;;14.63;11.40;;;18.30;99.90;;;;;;6251517;22;20008;-86
2022/09/06 06:51:18;;;;;;;13.85;11.35;;;18.30;99.90;;;;;;6251411;22;20506;-84
2022/09/06 06:53:46;;;;;;;16.95;13.05;;;18.40;99.90;;;;;;6251601;22;20016;-84
2022/09/06 06:56:19;;;;;;;14.23;12.68;;;18.40;99.90;;;;;;6225670;22;20474;-84
2022/09/06 06:58:47;;;;;;;14.57;12.98;;;18.40;99.90;;;;;;6251058;22;20019;-84
2022/09/06 07:01:14;;;;;;;15.55;11.20;;;18.40;99.90;;;;;;6278408;22;20015;-86
2022/09/06 07:03:40;;;;;;;13.65;11.63;;;18.40;99.90;;;;;;6226065;22;20022;-83
2022/09/06 07:06:06;;;;;;;15.07;12.80;;;18.40;99.90;;;;;;6251291;22;20047;-83
2022/09/06 07:08:32;;;;;;;15.93;13.98;;;18.40;99.90;;;;;;6250850;22;20061;-82
2022/09/06 07:10:59;;;;;;;16.38;13.80;;;18.40;99.90;;;;;;6277710;22;20042;-84
2022/09/06 07:13:25;;;;;;;15.60;12.68;;;18.40;99.90;;;;;;6247452;22;20031;-85
2022/09/06 07:15:50;;;;;;;14.20;12.38;;;18.40;99.90;;;;;;6277704;22;20333;-85
2022/09/06 07:18:17;;;;;;;14.68;13.07;;;18.40;99.90;;;;;;6225181;22;20012;-86
2022/09/06 07:20:43;;;;;;;15.27;13.30;;;18.40;99.90;;;;;;6249132;22;20011;-85
2022/09/06 07:23:09;;;;;;;16.92;13.48;;;18.40;99.90;;;;;;6250576;22;20072;-86
2022/09/06 07:25:34;;;;;;;14.80;12.98;;;18.40;99.90;;;;;;6276587;22;20468;-83
2022/09/06 07:28:05;;;;;;;15.32;13.32;;;18.40;99.90;;;;;;6277395;22;20008;-84
2022/09/06 07:30:33;;;;;;;16.10;14.30;;;18.40;99.90;;;;;;6277493;22;20008;-84
2022/09/06 07:32:59;;;;;;;15.52;13.88;;;18.50;99.90;;;;;;6277187;22;20133;-84
2022/09/06 07:35:25;;;;;;;17.90;14.20;;;18.50;99.90;;;;;;6277694;22;20019;-84
2022/09/06 07:37:55;;;;;;;16.88;15.00;;;18.60;99.90;;;;;;6277687;22;20050;-83
2022/09/06 07:40:21;;;;;;;17.98;14.73;;;18.60;99.90;;;;;;6277388;22;20062;-83
2022/09/06 07:42:47;;;;;;;14.00;12.50;;;18.80;99.90;;;;;;6277476;22;20102;-84
2022/09/06 07:45:13;;;;;;;15.55;13.68;;;18.80;99.90;;;;;;6250209;22;20011;-85
2022/09/06 07:47:39;;;;;;;15.20;13.45;;;18.90;99.90;;;;;;6277464;22;20007;-83
2022/09/06 07:50:05;;;;;;;17.92;13.75;;;18.90;99.90;;;;;;6224962;22;20323;-84
2022/09/06 07:52:31;;;;;;;14.48;12.45;;;19.00;99.90;;;;;;6250576;22;20091;-83
2022/09/06 07:54:57;;;;;;;15.15;13.25;;;19.00;99.90;;;;;;6249566;22;20058;-83
2022/09/06 07:57:22;;;;;;;14.73;13.23;;;19.00;99.90;;;;;;6249747;22;20023;-85
2022/09/06 07:59:48;;;;;;;16.63;13.73;;;19.00;99.90;;;;;;6250129;22;20011;-85
2022/09/06 08:02:16;;;;;;;17.60;14.32;;;19.00;99.90;;;;;;6245378;22;20449;-84
2022/09/06 08:04:42;;;;;;;16.10;14.30;;;19.00;99.90;;;;;;6245293;23;20018;-82
2022/09/06 08:07:08;;;;;;;15.60;14.00;;;19.10;99.90;;;;;;6244851;23;20480;-86
2022/09/06 08:09:35;;;;;;;19.80;13.90;;;19.10;99.90;;;;;;6219377;23;20013;-84
2022/09/06 08:12:05;;;;;;;17.10;13.93;;;19.10;99.90;;;;;;6246172;22;20469;-85
2022/09/06 08:14:34;;;;;;;15.73;13.45;;;19.10;99.90;;;;;;6246202;22;20016;-83
2022/09/06 08:16:59;;;;;;;16.90;14.10;;;19.20;99.90;;;;;;6244544;23;20016;-83
2022/09/06 08:19:25;;;;;;;20.77;14.25;;;19.30;99.90;;;;;;6246489;22;20023;-84
2022/09/06 08:21:54;;;;;;;18.50;14.23;;;19.40;99.90;;;;;;6219404;23;20026;-84
2022/09/06 08:24:20;;;;;;;18.73;14.30;;;19.50;99.90;;;;;;6246609;22;20051;-84
2022/09/06 08:26:45;;;;;;;19.23;14.75;;;19.60;99.90;;;;;;6244643;23;20020;-87
2022/09/06 08:29:11;;;;;;;16.40;13.00;;;19.70;99.90;;;;;;6246248;23;20008;-85
2022/09/06 08:31:40;;;;;;;16.45;13.23;;;19.80;99.90;;;;;;6219451;23;20012;-85
2022/09/06 08:34:05;;;;;;;16.30;12.65;;;19.90;99.90;;;;;;6246780;22;20012;-86
2022/09/06 08:36:32;;;;;;;18.00;13.68;;;20.00;99.90;;;;;;6246308;22;20336;-83
2022/09/06 08:39:04;;;;;;;16.30;12.77;;;20.10;99.90;;;;;;6246036;22;20405;-86
2022/09/06 08:41:31;;;;;;;14.80;13.23;;;20.10;99.90;;;;;;6246358;22;20008;-86
2022/09/06 08:43:59;;;;;;;14.85;12.98;;;20.30;99.90;;;;;;6246371;22;20013;-83
2022/09/06 08:46:51;;;;;;;14.05;11.98;;;20.40;99.90;;;;;;6245717;23;20092;-82
2022/09/06 08:49:17;;;;;;;14.48;12.55;;;20.50;99.90;;;;;;6243348;23;20083;-85
2022/09/06 08:52:04;;;;;;;16.33;13.07;;;20.70;99.90;;;;;;6246305;22;20338;-83
2022/09/06 08:54:50;;;;;;;16.67;12.02;;;20.80;99.90;;;;;;6246657;23;20091;-87
2022/09/06 08:57:16;;;;;;;16.15;12.98;;;20.90;99.90;;;;;;6251630;22;20345;-83
2022/09/06 08:59:42;;;;;;;14.15;12.32;;;21.00;99.90;;;;;;6252234;23;20012;-83
2022/09/06 09:02:16;;;;;;;15.77;12.20;;;21.10;99.90;;;;;;6257619;22;20015;-83
2022/09/06 09:04:46;;;;;;;15.48;12.52;;;21.30;99.90;;;;;;6285564;22;20012;-84
2022/09/06 09:07:35;;;;;;;19.73;12.35;;;21.40;99.90;;;;;;6261156;22;20047;-78
2022/09/06 09:10:09;;;;;;;15.98;11.73;;;21.50;99.90;;;;;;6269320;22;20419;-81
2022/09/06 09:12:44;;;;;;;14.88;11.27;;;21.60;99.90;;;;;;6269984;22;20015;-78
2022/09/06 09:15:13;;;;;;;15.15;11.38;;;21.80;99.90;;;;;;6288330;22;20022;-84
2022/09/06 09:17:40;;;;;;;13.15;10.48;;;22.00;99.90;;;;;;6280871;22;20012;-85
2022/09/06 09:20:09;;;;;;;14.20;11.50;;;22.20;99.90;;;;;;6279798;22;20016;-84
2022/09/06 09:22:35;;;;;;;14.23;10.38;;;22.30;99.90;;;;;;6251688;22;20022;-83
2022/09/06 09:25:02;;;;;;;13.50;10.88;;;22.50;99.90;;;;;;6279145;22;20004;-83
2022/09/06 09:27:28;;;;;;;12.55;10.43;;;22.70;99.90;;;;;;6225594;22;20444;-86
2022/09/06 09:29:54;;;;;;;12.43;11.13;;;22.80;99.90;;;;;;6278908;22;20010;-83
2022/09/06 09:32:32;;;;;;;12.38;11.07;;;23.00;99.90;;;;;;6278740;22;20047;-82
2022/09/06 09:35:22;;;;;;;13.93;11.18;;;23.10;99.90;;;;;;6278870;22;20016;-85
2022/09/06 09:38:15;;;;;;;11.10;9.52;;;23.20;99.90;;;;;;6252012;22;20065;-85
2022/09/06 09:40:50;;;;;;;12.15;8.90;;;23.40;99.90;;;;;;6180234;22;20027;-83
2022/09/06 09:43:19;;;;;;;10.15;8.65;;;23.50;99.90;;;;;;6251225;22;20016;-83
2022/09/06 09:45:46;;;;;;;9.90;7.95;;;23.70;99.90;;;;;;6278301;22;20129;-86
2022/09/06 09:48:22;;;;;;;10.80;7.85;;;23.70;99.90;;;;;;6278600;22;20011;-83
2022/09/06 09:50:49;;;;;;;9.68;8.07;;;23.90;99.90;;;;;;6278381;22;20444;-86
2022/09/06 09:53:19;;;;;;;10.57;8.10;;;24.10;99.90;;;;;;6277957;22;20430;-85
2022/09/06 09:55:45;;;;;;;9.23;7.40;;;24.20;99.90;;;;;;6252093;22;20059;-82
2022/09/06 09:58:38;;;;;;;7.93;7.13;;;24.30;99.90;;;;;;6278518;22;20011;-85
2022/09/06 10:01:29;;;;;;;7.88;6.32;;;24.40;99.90;;;;;;6225413;22;20503;-85
2022/09/06 10:04:10;;;;;;;9.50;5.53;;;24.60;99.90;;;;;;6251179;22;20007;-83
2022/09/06 10:06:36;;;;;;;8.43;6.18;;;24.60;99.90;;;;;;6251792;22;20016;-86
2022/09/06 10:09:28;;;;;;;7.95;6.00;;;24.70;99.90;;;;;;6251118;22;20053;-82
2022/09/06 10:11:57;;;;;;;7.13;5.50;;;24.90;99.90;;;;;;6278154;22;20012;-85
2022/09/06 10:14:41;;;;;;;5.50;4.47;;;25.00;99.90;;;;;;6250657;22;20058;-85
2022/09/06 10:17:07;;;;;;;4.20;3.40;;;25.10;99.90;;;;;;6278306;22;20012;-83
2022/09/06 10:19:42;;;;;;;5.60;4.35;;;25.30;99.90;;;;;;6277857;22;20014;-84
2022/09/06 10:22:28;;;;;;;6.95;3.80;;;25.30;99.90;;;;;;6277725;22;20065;-86
2022/09/06 10:25:04;;;;;;;7.13;3.80;;;25.50;99.90;;;;;;6226128;22;20073;-84
2022/09/06 10:27:32;;;;;;;7.10;3.70;;;25.60;99.90;;;;;;6250864;22;20011;-84
2022/09/06 10:30:05;;;;;;;4.32;3.25;;;25.80;99.90;;;;;;6224283;22;20341;-85
2022/09/06 10:32:59;;;;;;;4.45;3.10;;;25.80;99.90;;;;;;6250760;22;20026;-84
2022/09/06 10:35:36;;;;;;;4.97;3.08;;;26.10;99.90;;;;;;6250804;22;20057;-84
2022/09/06 10:38:31;;;;;;;4.90;3.38;;;26.20;99.90;;;;;;6252232;22;20362;-85
2022/09/06 10:41:15;;;;;;;6.20;3.90;;;26.30;99.90;;;;;;6250318;22;20433;-81
2022/09/06 10:43:58;;;;;;;5.82;3.70;;;26.40;99.90;;;;;;6250824;22;20455;-83
2022/09/06 10:46:27;;;;;;;6.38;3.63;;;26.50;99.90;;;;;;6250747;22;20042;-83
2022/09/06 10:48:52;;;;;;;5.05;3.30;;;26.70;99.90;;;;;;6225158;22;20019;-85
2022/09/06 10:51:33;;;;;;;4.55;3.10;;;26.80;99.90;;;;;;6252028;22;20008;-84
2022/09/06 10:54:16;;;;;;;5.65;3.30;;;26.80;99.90;;;;;;6251055;22;20035;-85
2022/09/06 10:56:46;;;;;;;9.27;3.33;;;26.90;99.90;;;;;;6277964;22;20085;-83
2022/09/06 10:59:24;;;;;;;5.70;3.25;;;27.00;99.90;;;;;;6225091;22;20461;-83
2022/09/06 11:02:08;;;;;;;4.70;2.75;;;27.10;99.90;;;;;;6245051;22;20018;-86
2022/09/06 11:04:38;;;;;;;4.27;2.60;;;27.20;99.00;;;;;;6247418;22;20008;-83
2022/09/06 11:07:15;;;;;;;4.43;2.40;;;27.30;99.40;;;;;;6247424;22;20016;-84
2022/09/06 11:09:55;;;;;;;5.68;2.97;;;27.40;98.60;;;;;;6245229;23;20023;-84
2022/09/06 11:12:54;;;;;;;4.47;2.83;;;27.50;99.00;;;;;;6247207;22;20015;-85
2022/09/06 11:15:21;;;;;;;5.13;3.45;;;27.60;97.90;;;;;;6246040;23;20050;-83
2022/09/06 11:17:47;;;;;;;4.82;3.60;;;27.60;98.50;;;;;;6245313;23;20035;-84
2022/09/06 11:20:31;;;;;;;6.00;2.80;;;27.60;97.70;;;;;;6245444;23;20387;-86
2022/09/06 11:23:06;;;;;;;4.53;2.80;;;27.70;98.20;;;;;;6247080;23;20019;-88
2022/09/06 11:25:56;;;;;;;6.50;2.90;;;27.80;97.90;;;;;;6245720;23;20008;-85
2022/09/06 11:28:34;;;;;;;5.50;3.38;;;27.90;97.30;;;;;;6244934;23;20048;-83
2022/09/06 11:31:02;;;;;;;4.28;2.88;;;28.00;96.90;;;;;;6245339;22;20013;-84
2022/09/06 11:33:34;;;;;;;5.85;3.38;;;28.10;97.20;;;;;;6246729;22;20023;-85
2022/09/06 11:36:25;;;;;;;5.10;3.60;;;28.20;96.80;;;;;;6246685;22;20008;-83
2022/09/06 11:38:56;;;;;;;5.20;3.70;;;28.30;96.80;;;;;;6245082;23;20016;-84
2022/09/06 11:41:34;;;;;;;5.93;4.10;;;28.30;97.00;;;;;;6247046;22;20009;-85
2022/09/06 11:44:00;;;;;;;6.13;3.90;;;28.20;96.80;;;;;;6245349;23;20102;-83
2022/09/06 11:46:32;;;;;;;9.75;4.68;;;28.10;96.90;;;;;;6245095;23;20066;-84
2022/09/06 11:49:22;;;;;;;6.40;4.63;;;28.20;96.90;;;;;;6244975;23;20019;-85
2022/09/06 11:51:48;;;;;;;6.50;5.28;;;28.20;97.10;;;;;;6244812;22;20062;-83
2022/09/06 11:54:14;;;;;;;9.68;5.13;;;28.30;96.90;;;;;;6244635;23;20008;-86
2022/09/06 11:56:45;;;;;;;5.93;4.45;;;28.30;96.70;;;;;;6244760;23;20012;-85
2022/09/06 11:59:23;;;;;;;6.95;4.60;;;28.40;97.10;;;;;;6246730;23;20373;-86
2022/09/06 12:01:54;;;;;;;6.68;4.70;;;28.60;96.60;;;;;;6250383;22;20019;-86
2022/09/06 12:04:21;;;;;;;7.25;4.60;;;28.70;96.20;;;;;;6250335;22;20342;-87
2022/09/06 12:07:16;;;;;;;8.73;5.75;;;28.70;96.20;;;;;;6277031;22;20019;-84
2022/09/06 12:09:43;;;;;;;7.45;5.43;;;28.30;95.90;;;;;;6251971;22;20011;-87
2022/09/06 12:12:10;;;;;;;10.40;4.57;;;28.20;96.20;;;;;;6277188;22;20433;-86
2022/09/06 12:14:41;;;;;;;5.90;4.55;;;28.00;96.50;;;;;;6249949;22;20421;-84
2022/09/06 12:17:07;;;;;;;6.30;3.97;;;27.80;96.70;;;;;;6250464;22;20015;-86
2022/09/06 12:19:52;;;;;;;4.53;3.58;;;27.80;96.90;;;;;;6249935;22;20062;-84
2022/09/06 12:22:29;;;;;;;6.90;3.37;;;27.80;96.40;;;;;;6279197;22;20015;-84
2022/09/06 12:24:58;;;;;;;10.98;4.18;;;27.90;96.10;;;;;;6251967;22;20614;-85
2022/09/06 12:27:43;;;;;;;4.47;2.70;;;28.00;95.50;;;;;;6252253;22;20310;-85
2022/09/06 12:30:12;;;;;;;7.93;2.50;;;28.20;94.50;;;;;;6251959;22;20011;-84
2022/09/06 12:32:47;;;;;;;3.78;2.30;;;28.20;94.30;;;;;;6279083;22;20097;-83
2022/09/06 12:35:30;;;;;;;6.68;2.85;;;28.10;94.30;;;;;;6252426;22;20039;-83
2022/09/06 12:38:06;;;;;;;3.03;2.38;;;27.90;94.10;;;;;;6252152;22;20391;-85
2022/09/06 12:40:37;;;;;;;4.15;2.80;;;27.90;94.90;;;;;;6279502;22;20033;-84
2022/09/06 12:43:04;;;;;;;5.90;2.60;;;28.00;94.70;;;;;;6251519;22;20020;-87
2022/09/06 12:45:30;;;;;;;3.55;2.60;;;28.00;94.60;;;;;;6280099;22;20309;-86
2022/09/06 12:48:11;;;;;;;4.07;3.05;;;27.90;94.50;;;;;;6279320;22;20310;-87
2022/09/06 12:50:37;;;;;;;4.07;2.38;;;28.00;94.20;;;;;;6226425;22;20066;-86
2022/09/06 12:53:15;;;;;;;4.75;2.42;;;28.10;94.60;;;;;;6251994;22;20460;-84
2022/09/06 12:55:41;;;;;;;5.43;2.58;;;28.10;94.20;;;;;;6252156;22;20016;-85
2022/09/06 12:58:09;;;;;;;10.60;2.50;;;27.90;94.10;;;;;;6252083;22;20022;-84
2022/09/06 13:00:47;;;;;;;5.65;2.10;;;27.70;94.20;;;;;;6251703;22;20043;-84
2022/09/06 13:03:28;;;;;;;7.75;2.10;;;27.60;94.40;;;;;;6252483;22;20022;-86
2022/09/06 13:05:57;;;;;;;3.60;2.03;;;27.80;94.70;;;;;;6279192;22;20456;-86
2022/09/06 13:08:36;;;;;;;5.50;2.25;;;27.90;94.30;;;;;;6253194;22;20008;-84
2022/09/06 13:11:08;;;;;;;8.57;2.30;;;28.00;94.10;;;;;;6252187;22;20023;-85
2022/09/06 13:13:33;;;;;;;4.78;2.00;;;28.10;93.80;;;;;;6279446;22;20016;-84
2022/09/06 13:15:59;;;;;;;3.38;1.80;;;28.20;93.50;;;;;;6252462;22;20141;-86
2022/09/06 13:18:34;;;;;;;3.65;1.85;;;28.30;93.90;;;;;;6252310;22;20329;-86
2022/09/06 13:21:10;;;;;;;3.78;1.70;;;28.40;93.50;;;;;;6251411;22;20012;-85
2022/09/06 13:23:46;;;;;;;5.05;1.90;;;28.40;93.00;;;;;;6251910;22;20011;-85
2022/09/06 13:26:12;;;;;;;4.70;1.80;;;28.50;93.10;;;;;;6279266;22;20162;-86
2022/09/06 13:28:38;;;;;;;8.10;2.33;;;28.60;93.10;;;;;;6252340;22;20030;-86
2022/09/06 13:31:13;;;;;;;4.35;1.90;;;28.60;92.80;;;;;;6279452;22;20008;-85
2022/09/06 13:33:40;;;;;;;4.50;2.05;;;28.60;93.10;;;;;;6279394;22;20023;-84
2022/09/06 13:36:28;;;;;;;3.90;1.85;;;28.70;92.50;;;;;;6251731;22;20367;-80
2022/09/06 13:38:54;;;;;;;5.97;1.85;;;28.70;92.20;;;;;;6279544;22;20011;-86
2022/09/06 13:41:29;;;;;;;5.47;1.75;;;28.60;92.00;;;;;;6279067;22;20019;-84
2022/09/06 13:44:00;;;;;;;3.80;2.05;;;28.60;91.90;;;;;;6226408;22;20020;-85
2022/09/06 13:46:25;;;;;;;3.90;1.90;;;28.70;92.20;;;;;;6279232;22;20077;-81
2022/09/06 13:48:55;;;;;;;5.18;1.63;;;28.70;92.00;;;;;;6251464;22;20016;-84
2022/09/06 13:51:21;;;;;;;3.92;1.60;;;28.70;91.20;;;;;;6279543;22;20081;-86
2022/09/06 13:53:47;;;;;;;3.30;1.90;;;28.70;91.40;;;;;;6279512;22;20430;-86
2022/09/06 13:56:14;;;;;;;5.35;2.10;;;28.80;91.30;;;;;;6251927;22;20038;-87
2022/09/06 13:58:40;;;;;;;4.15;1.77;;;28.80;91.20;;;;;;6279243;22;20030;-87
2022/09/06 14:01:08;;;;;;;3.83;1.70;;;28.80;91.20;;;;;;6246742;22;20008;-85
2022/09/06 14:03:35;;;;;;;4.72;1.60;;;28.70;90.90;;;;;;6221160;23;20072;-84
2022/09/06 14:06:01;;;;;;;5.63;2.00;;;28.70;90.90;;;;;;6246982;23;20040;-87
2022/09/06 14:08:27;;;;;;;6.15;2.10;;;28.80;90.90;;;;;;6246980;23;20020;-84
2022/09/06 14:10:53;;;;;;;3.58;1.73;;;28.80;90.60;;;;;;6246087;22;20066;-87
2022/09/06 14:13:19;;;;;;;4.25;1.85;;;28.70;90.40;;;;;;6248249;22;20012;-86
2022/09/06 14:15:46;;;;;;;3.45;1.88;;;28.70;90.20;;;;;;6220987;23;20397;-86
2022/09/06 14:18:12;;;;;;;6.18;2.33;;;28.80;90.50;;;;;;6247915;22;20038;-86
2022/09/06 14:20:39;;;;;;;7.43;2.20;;;28.80;90.30;;;;;;6247967;22;20008;-87
2022/09/06 14:23:05;;;;;;;5.20;2.20;;;28.70;90.40;;;;;;6247423;22;20422;-84
2022/09/06 14:25:34;;;;;;;5.40;2.40;;;28.50;90.50;;;;;;6247448;22;20011;-84
2022/09/06 14:28:00;;;;;;;4.68;2.33;;;28.30;90.90;;;;;;6247982;22;20003;-85
2022/09/06 14:30:26;;;;;;;5.45;2.35;;;28.20;91.00;;;;;;6246638;22;20012;-86
2022/09/06 14:32:52;;;;;;;4.28;1.90;;;28.30;91.20;;;;;;6246464;23;20436;-83
2022/09/06 14:35:17;;;;;;;5.93;2.45;;;28.40;91.70;;;;;;6247317;22;20035;-80
2022/09/06 14:37:43;;;;;;;5.53;2.50;;;28.60;91.60;;;;;;6247186;23;20023;-85
2022/09/06 14:40:09;;;;;;;5.75;2.63;;;28.60;91.10;;;;;;6246293;23;20404;-85
2022/09/06 14:42:35;;;;;;;5.85;2.45;;;28.50;91.00;;;;;;6247396;22;20018;-84
2022/09/06 14:45:01;;;;;;;6.18;2.88;;;28.40;91.20;;;;;;6219960;23;20066;-82
2022/09/06 14:47:26;;;;;;;5.93;2.70;;;28.40;91.30;;;;;;6245810;23;20020;-83
2022/09/06 14:49:52;;;;;;;5.35;2.88;;;28.30;91.50;;;;;;6245000;23;20038;-85
2022/09/06 14:52:18;;;;;;;5.32;2.47;;;28.20;91.50;;;;;;6247108;22;20338;-83
2022/09/06 14:54:44;;;;;;;5.22;2.83;;;28.10;91.80;;;;;;6220439;23;20023;-83
2022/09/06 14:57:09;;;;;;;7.43;2.42;;;28.30;92.20;;;;;;6245496;23;20096;-85
2022/09/06 14:59:35;;;;;;;6.88;2.78;;;28.40;92.30;;;;;;6247325;23;20087;-86
2022/09/06 15:02:01;;;;;;;8.13;2.33;;;28.50;92.20;;;;;;6269310;22;20173;-86
2022/09/06 15:04:28;;;;;;;6.32;2.30;;;28.60;92.10;;;;;;6250750;22;20011;-85
2022/09/06 15:06:54;;;;;;;5.30;2.60;;;28.70;92.10;;;;;;6277834;22;20022;-85
2022/09/06 15:09:19;;;;;;;5.05;2.80;;;28.80;91.80;;;;;;6225416;22;20008;-86
2022/09/06 15:11:48;;;;;;;6.80;2.78;;;28.80;91.60;;;;;;6250473;22;20515;-86
2022/09/06 15:14:15;;;;;;;7.25;2.35;;;28.70;91.50;;;;;;6250660;22;20095;-85
2022/09/06 15:16:41;;;;;;;5.95;2.67;;;28.70;91.60;;;;;;6251578;22;20018;-86
2022/09/06 15:19:08;;;;;;;4.68;2.60;;;28.70;91.70;;;;;;6250752;22;20330;-82
2022/09/06 15:21:33;;;;;;;5.63;2.40;;;28.50;91.30;;;;;;6249857;22;20035;-85
2022/09/06 15:24:00;;;;;;;6.07;2.70;;;28.40;91.30;;;;;;6250770;22;20292;-84
2022/09/06 15:26:27;;;;;;;5.82;3.10;;;28.30;91.60;;;;;;6251024;22;20019;-86
2022/09/06 15:28:53;;;;;;;3.72;2.53;;;28.20;91.90;;;;;;6277843;22;20373;-86
2022/09/06 15:31:19;;;;;;;3.55;2.58;;;28.30;92.10;;;;;;6250578;22;20012;-85
2022/09/06 15:33:47;;;;;;;5.82;2.90;;;28.40;92.00;;;;;;6277909;22;20012;-74
2022/09/06 15:36:16;;;;;;;7.47;2.72;;;28.40;91.80;;;;;;6227191;22;20098;-87
2022/09/06 15:38:44;;;;;;;4.13;2.30;;;28.50;91.80;;;;;;6250694;22;20054;-86
2022/09/06 15:41:23;;;;;;;5.90;2.35;;;28.50;91.90;;;;;;6250639;22;20346;-85
2022/09/06 15:43:51;;;;;;;7.35;4.75;;;28.50;92.80;;;;;;6250428;22;20007;-85
2022/09/06 15:46:21;;;;;;;6.85;4.38;;;28.40;93.30;;;;;;6251726;22;20433;-85
2022/09/06 15:48:49;;;;;;;6.32;3.50;;;28.10;94.00;;;;;;6226657;22;20085;-87
2022/09/06 15:51:18;;;;;;;5.05;3.78;;;27.90;94.60;;;;;;6251329;22;20015;-83